Time;durP1;ratioP1;P1;durP2;ratioP2;P2;SDS_P1;SDS_P2;PMS_P1;PMS_P2;Temp;Humidity;BMP_temperature;BMP_pressure;BME280_temperature;BME280_humidity;BME280_pressure;Samples;Min_cycle;Max_cycle;Signal;HPM_P1;HPM_P2
2023/01/28 00:01:10;;;;;;;7.90;6.05;;;1.70;1.00;;;;;;5137440;27;20055;-30
2023/01/28 00:03:37;;;;;;;6.43;4.85;;;1.80;1.00;;;;;;5137000;27;20051;-30
2023/01/28 00:06:08;;;;;;;6.20;5.18;;;1.80;99.90;;;;;;5137359;27;20058;-30
2023/01/28 00:08:34;;;;;;;7.07;6.28;;;1.80;99.90;;;;;;5137583;27;20043;-31
2023/01/28 00:11:02;;;;;;;6.03;4.13;;;1.80;99.90;;;;;;5137270;27;20099;-30
2023/01/28 00:13:28;;;;;;;7.78;5.50;;;1.70;99.90;;;;;;5137942;27;20373;-30
2023/01/28 00:15:58;;;;;;;7.78;5.60;;;1.70;99.90;;;;;;5137134;27;20043;-30
2023/01/28 00:18:25;;;;;;;5.57;4.97;;;1.80;99.90;;;;;;5119025;27;20481;-31
2023/01/28 00:21:03;;;;;;;6.97;5.22;;;1.70;99.90;;;;;;5119571;27;20386;-30
2023/01/28 00:23:31;;;;;;;5.95;5.13;;;1.70;99.90;;;;;;5101921;27;20082;-31
2023/01/28 00:26:05;;;;;;;7.45;5.88;;;1.70;99.90;;;;;;5118902;27;20494;-31
2023/01/28 00:28:31;;;;;;;7.00;5.05;;;1.70;1.00;;;;;;5136914;27;20050;-30
2023/01/28 00:30:57;;;;;;;5.95;3.80;;;1.70;99.90;;;;;;5136495;27;20039;-31
2023/01/28 00:33:23;;;;;;;7.82;4.47;;;1.70;99.80;;;;;;5136732;27;20047;-31
2023/01/28 00:35:59;;;;;;;4.57;4.10;;;1.70;99.90;;;;;;5119181;27;20046;-31
2023/01/28 00:38:26;;;;;;;4.50;4.10;;;1.70;99.90;;;;;;5118892;27;20090;-31
2023/01/28 00:40:52;;;;;;;5.97;4.60;;;1.70;1.00;;;;;;5118815;27;20039;-32
2023/01/28 00:43:18;;;;;;;6.60;4.33;;;2.00;99.90;;;;;;5136886;27;20042;-31
2023/01/28 00:45:43;;;;;;;4.57;4.07;;;1.70;99.90;;;;;;5136626;27;20485;-30
2023/01/28 00:48:09;;;;;;;6.00;4.60;;;1.70;99.90;;;;;;5136482;27;20385;-31
2023/01/28 00:50:35;;;;;;;6.43;4.80;;;1.60;99.90;;;;;;5137010;27;20043;-31
2023/01/28 00:53:01;;;;;;;5.15;4.65;;;1.60;1.00;;;;;;5136359;27;20047;-31
2023/01/28 00:55:27;;;;;;;5.43;4.80;;;1.60;1.00;;;;;;5136727;27;20035;-31
2023/01/28 00:57:53;;;;;;;5.28;4.57;;;1.60;1.00;;;;;;5136330;27;20082;-31
2023/01/28 01:00:24;;;;;;;5.13;4.30;;;1.60;1.00;;;;;;5136303;27;20040;-30
2023/01/28 01:02:50;;;;;;;6.30;4.60;;;1.60;1.00;;;;;;5136876;27;20098;-31
2023/01/28 01:05:16;;;;;;;5.53;4.65;;;1.60;1.00;;;;;;5117689;27;20546;-30
2023/01/28 01:07:42;;;;;;;5.68;4.93;;;1.60;1.00;;;;;;5136176;27;20093;-30
2023/01/28 01:10:14;;;;;;;7.30;4.90;;;1.60;1.00;;;;;;5117702;27;20504;-30
2023/01/28 01:12:40;;;;;;;5.67;4.53;;;1.60;99.90;;;;;;5135819;27;20047;-30
2023/01/28 01:15:09;;;;;;;7.47;5.30;;;1.60;99.90;;;;;;5135908;27;20039;-30
2023/01/28 01:17:36;;;;;;;4.77;4.07;;;1.60;99.90;;;;;;5136033;27;20047;-31
2023/01/28 01:20:04;;;;;;;5.13;3.72;;;1.50;1.00;;;;;;5135931;27;20092;-30
2023/01/28 01:22:35;;;;;;;5.13;4.07;;;1.60;1.00;;;;;;5135636;27;20508;-30
2023/01/28 01:25:02;;;;;;;5.70;3.92;;;1.60;99.90;;;;;;5136468;27;20125;-31
2023/01/28 01:27:29;;;;;;;4.70;4.13;;;1.60;99.90;;;;;;5135775;27;20054;-31
2023/01/28 01:29:55;;;;;;;5.43;4.50;;;1.60;99.90;;;;;;5136050;27;20065;-30
2023/01/28 01:32:21;;;;;;;5.20;4.70;;;1.60;99.90;;;;;;5117497;27;20540;-30
2023/01/28 01:34:47;;;;;;;4.75;4.05;;;1.60;1.00;;;;;;5135545;27;20035;-31
2023/01/28 01:37:13;;;;;;;4.65;4.15;;;1.60;1.00;;;;;;5135869;27;20075;-30
2023/01/28 01:39:39;;;;;;;5.13;4.63;;;1.60;1.00;;;;;;5135593;27;20039;-31
2023/01/28 01:42:05;;;;;;;5.00;4.43;;;1.50;1.00;;;;;;5134817;27;20070;-31
2023/01/28 01:44:49;;;;;;;5.60;3.58;;;1.60;99.90;;;;;;5083480;27;20051;-31
2023/01/28 01:47:16;;;;;;;7.20;4.90;;;1.60;99.90;;;;;;5135350;27;20526;-30
2023/01/28 01:49:43;;;;;;;5.55;5.03;;;1.60;99.90;;;;;;5135622;27;20090;-31
2023/01/28 01:52:16;;;;;;;5.07;4.57;;;1.50;1.00;;;;;;5135340;27;20549;-31
2023/01/28 01:54:45;;;;;;;6.40;4.68;;;1.60;1.00;;;;;;5135818;27;20074;-30
2023/01/28 01:57:17;;;;;;;5.57;4.68;;;1.60;1.00;;;;;;5135212;27;20058;-30
2023/01/28 01:59:43;;;;;;;5.35;4.72;;;1.50;1.00;;;;;;5135497;27;20051;-30
2023/01/28 02:02:11;;;;;;;7.50;4.57;;;1.50;1.00;;;;;;5117450;27;20039;-30
2023/01/28 02:04:43;;;;;;;5.80;5.20;;;1.50;1.00;;;;;;5135372;27;20082;-31
2023/01/28 02:07:12;;;;;;;5.80;4.57;;;1.50;1.00;;;;;;5135108;27;20485;-32
2023/01/28 02:09:37;;;;;;;5.78;4.72;;;1.50;1.00;;;;;;5134999;27;20051;-31
2023/01/28 02:12:07;;;;;;;5.15;4.63;;;1.60;1.00;;;;;;5134984;27;20073;-30
2023/01/28 02:14:36;;;;;;;6.28;4.93;;;1.50;99.90;;;;;;5116497;27;20047;-30
2023/01/28 02:17:03;;;;;;;6.57;4.87;;;1.50;99.90;;;;;;5134908;27;20057;-30
2023/01/28 02:19:39;;;;;;;7.30;5.85;;;1.50;99.90;;;;;;5134516;27;20489;-30
2023/01/28 02:22:34;;;;;;;7.28;5.57;;;1.50;99.90;;;;;;5117392;27;20092;-31
2023/01/28 02:25:18;;;;;;;6.18;5.18;;;1.50;1.00;;;;;;5130329;27;20086;-30
2023/01/28 02:28:13;;;;;;;5.67;5.10;;;1.50;1.00;;;;;;5117204;27;20090;-31
2023/01/28 02:30:43;;;;;;;7.50;5.30;;;1.50;99.90;;;;;;5116336;28;20047;-30
2023/01/28 02:33:21;;;;;;;7.70;5.50;;;1.50;99.90;;;;;;5134896;27;20043;-30
2023/01/28 02:35:51;;;;;;;6.30;5.47;;;1.50;1.00;;;;;;5116879;28;20477;-30
2023/01/28 02:38:45;;;;;;;8.43;6.13;;;1.40;1.00;;;;;;5117391;28;20061;-30
2023/01/28 02:41:19;;;;;;;6.73;5.53;;;1.40;1.00;;;;;;5134686;28;20401;-31
2023/01/28 02:43:46;;;;;;;6.20;5.60;;;1.40;99.90;;;;;;5135464;28;20366;-31
2023/01/28 02:49:24;;;;;;;6.43;5.40;;;1.40;1.00;;;;;;5134581;28;20086;-31
2023/01/28 02:51:58;;;;;;;8.90;6.05;;;1.40;1.00;;;;;;5116767;28;20066;-30
2023/01/28 02:54:45;;;;;;;7.28;5.22;;;1.40;1.00;;;;;;5139189;27;20047;-30
2023/01/28 02:57:29;;;;;;;7.70;6.07;;;1.40;1.00;;;;;;5138753;27;20082;-30
2023/01/28 03:00:17;;;;;;;6.93;5.97;;;1.40;1.00;;;;;;5138668;27;20508;-32
2023/01/28 03:03:09;;;;;;;8.68;6.45;;;1.30;1.00;;;;;;5139247;27;20074;-31
2023/01/28 03:06:02;;;;;;;8.15;5.82;;;1.30;1.00;;;;;;5106655;27;20062;-30
2023/01/28 03:36:50;;;;;;;7.82;6.43;;;1.20;99.90;;;;;;5138615;27;20443;-31
2023/01/28 03:39:17;;;;;;;9.35;6.93;;;1.30;99.90;;;;;;5138204;27;20095;-31
2023/01/28 03:41:56;;;;;;;8.05;6.70;;;1.20;99.90;;;;;;5119720;27;20594;-30
2023/01/28 03:47:07;;;;;;;9.10;7.28;;;1.20;99.90;;;;;;5138077;27;20250;-30
2023/01/28 03:49:33;;;;;;;8.07;6.13;;;1.20;99.90;;;;;;5137369;27;20051;-31
2023/01/28 03:51:59;;;;;;;8.55;7.18;;;1.20;99.90;;;;;;5119339;27;20176;-30
2023/01/28 03:54:25;;;;;;;9.65;6.32;;;1.20;99.90;;;;;;5138060;27;20035;-31
2023/01/28 03:56:50;;;;;;;7.55;6.75;;;1.20;99.90;;;;;;5137568;27;20125;-30
2023/01/28 03:59:16;;;;;;;9.45;6.88;;;1.20;92.10;;;;;;5137569;27;20362;-31
2023/01/28 04:01:42;;;;;;;8.45;6.70;;;1.20;72.40;;;;;;5137460;27;20434;-30
2023/01/28 04:04:21;;;;;;;8.35;6.43;;;1.20;99.90;;;;;;5114806;28;20079;-30
2023/01/28 04:06:47;;;;;;;8.73;6.32;;;1.20;99.90;;;;;;5116734;28;20059;-30
2023/01/28 04:09:13;;;;;;;10.10;7.57;;;1.20;99.90;;;;;;5117322;28;20447;-30
2023/01/28 04:11:39;;;;;;;8.38;7.47;;;1.20;99.90;;;;;;5117214;28;20132;-30
2023/01/28 04:14:04;;;;;;;9.80;7.05;;;1.20;99.90;;;;;;5115359;28;20062;-30
2023/01/28 04:16:30;;;;;;;10.73;6.97;;;1.20;66.30;;;;;;5115122;28;20043;-30
2023/01/28 04:18:57;;;;;;;9.95;7.15;;;1.20;99.90;;;;;;5116551;28;20039;-30
2023/01/28 04:21:23;;;;;;;8.48;6.50;;;1.20;1.00;;;;;;5115659;28;20167;-30
2023/01/28 04:23:49;;;;;;;9.13;6.90;;;1.20;1.00;;;;;;5116210;28;20043;-31
2023/01/28 04:26:15;;;;;;;8.77;6.70;;;1.30;48.80;;;;;;5116944;28;20097;-31
2023/01/28 04:28:40;;;;;;;8.35;7.18;;;1.20;99.90;;;;;;5117215;28;20043;-30
2023/01/28 04:31:06;;;;;;;8.30;6.97;;;1.20;99.00;;;;;;5116658;28;20389;-30
2023/01/28 04:33:32;;;;;;;7.80;6.97;;;1.20;30.50;;;;;;5115209;28;20100;-30
2023/01/28 04:35:57;;;;;;;7.38;6.47;;;1.20;1.00;;;;;;5116241;28;20123;-30
2023/01/28 04:38:23;;;;;;;8.55;6.88;;;1.60;1.00;;;;;;5116228;28;20089;-31
2023/01/28 04:40:53;;;;;;;9.43;7.15;;;1.20;1.00;;;;;;5116148;27;20047;-30
2023/01/28 04:43:19;;;;;;;10.50;7.93;;;1.20;1.00;;;;;;5098405;28;20093;-30
2023/01/28 04:45:46;;;;;;;9.82;7.82;;;1.20;1.00;;;;;;5116113;28;20051;-30
2023/01/28 04:48:13;;;;;;;9.63;7.30;;;1.10;1.00;;;;;;5115595;28;20471;-31
2023/01/28 04:50:39;;;;;;;8.65;7.22;;;1.10;1.00;;;;;;5115935;28;20513;-31
2023/01/28 04:53:05;;;;;;;10.15;7.93;;;1.10;1.00;;;;;;5115836;28;20047;-31
2023/01/28 04:55:31;;;;;;;8.88;7.00;;;1.10;1.00;;;;;;5115490;28;20051;-30
2023/01/28 04:57:56;;;;;;;9.30;7.90;;;1.10;1.00;;;;;;5114658;28;20092;-31
2023/01/28 05:00:22;;;;;;;12.00;8.05;;;1.30;46.00;;;;;;5115843;28;20397;-30
2023/01/28 05:02:48;;;;;;;12.27;7.78;;;1.10;30.10;;;;;;5115746;28;20039;-31
2023/01/28 05:05:13;;;;;;;8.32;7.35;;;1.10;25.40;;;;;;5114146;28;20059;-30
2023/01/28 05:07:39;;;;;;;9.27;7.50;;;1.10;1.00;;;;;;5115616;28;20047;-31
2023/01/28 05:10:05;;;;;;;11.73;8.05;;;1.20;99.90;;;;;;5097592;28;20044;-31
2023/01/28 05:12:32;;;;;;;10.60;7.60;;;1.10;96.50;;;;;;5116089;28;20130;-32
2023/01/28 05:15:03;;;;;;;8.27;7.03;;;1.30;1.00;;;;;;5115422;28;20044;-30
2023/01/28 05:17:28;;;;;;;8.38;7.25;;;1.10;1.00;;;;;;5114135;28;20120;-30
2023/01/28 05:19:54;;;;;;;9.57;7.60;;;1.10;1.00;;;;;;5115379;27;20044;-31
2023/01/28 05:22:20;;;;;;;10.80;7.07;;;1.10;8.20;;;;;;5115388;28;20050;-30
2023/01/28 05:24:46;;;;;;;11.00;8.50;;;1.10;47.30;;;;;;5114104;28;20090;-31
2023/01/28 05:27:11;;;;;;;8.82;7.43;;;1.10;67.40;;;;;;5114967;28;20043;-31
2023/01/28 05:29:37;;;;;;;8.80;7.60;;;1.10;94.10;;;;;;5115251;27;20130;-31
2023/01/28 05:32:03;;;;;;;9.15;6.20;;;1.10;99.90;;;;;;5097377;28;20192;-31
2023/01/28 05:34:29;;;;;;;7.32;6.07;;;1.10;1.00;;;;;;5097009;28;20149;-30
2023/01/28 05:36:54;;;;;;;8.52;6.82;;;1.10;1.00;;;;;;5114631;28;20548;-30
2023/01/28 05:39:20;;;;;;;9.40;6.05;;;1.10;1.00;;;;;;5114063;28;20043;-30
2023/01/28 05:41:46;;;;;;;9.63;6.55;;;1.10;1.00;;;;;;5113788;28;20046;-30
2023/01/28 05:44:11;;;;;;;7.85;6.95;;;1.10;1.00;;;;;;5114946;28;20064;-31
2023/01/28 05:46:37;;;;;;;8.65;6.45;;;1.10;1.00;;;;;;5113666;28;20096;-31
2023/01/28 05:49:05;;;;;;;7.88;6.93;;;1.20;1.00;;;;;;5114789;28;20059;-30
2023/01/28 05:51:31;;;;;;;10.02;7.13;;;1.10;1.00;;;;;;5115083;28;20404;-31
2023/01/28 05:53:57;;;;;;;8.73;7.10;;;1.10;1.00;;;;;;5113501;28;20054;-32
2023/01/28 05:56:23;;;;;;;9.55;6.75;;;1.10;1.00;;;;;;5114746;28;20051;-31
2023/01/28 05:58:49;;;;;;;9.75;6.57;;;1.10;1.00;;;;;;5114618;28;20383;-31
2023/01/28 06:01:14;;;;;;;8.80;6.70;;;1.10;1.00;;;;;;5114626;28;20084;-31
2023/01/28 06:03:40;;;;;;;7.15;6.43;;;1.10;50.70;;;;;;5120101;27;20055;-31
2023/01/28 06:06:06;;;;;;;8.73;6.10;;;1.20;5.90;;;;;;5135054;27;20050;-30
2023/01/28 06:08:31;;;;;;;7.57;6.35;;;1.20;48.50;;;;;;5135039;27;20046;-30
2023/01/28 06:10:57;;;;;;;12.13;6.75;;;1.10;22.80;;;;;;5116656;27;20035;-31
2023/01/28 06:13:23;;;;;;;7.97;6.43;;;1.40;1.00;;;;;;5134867;27;20043;-31
2023/01/28 06:15:49;;;;;;;8.32;6.82;;;1.20;99.90;;;;;;5117687;27;20050;-31
2023/01/28 06:18:15;;;;;;;7.80;6.33;;;1.20;99.90;;;;;;5134889;27;20054;-30
2023/01/28 06:20:41;;;;;;;9.80;6.63;;;1.20;1.00;;;;;;5117103;28;20051;-30
2023/01/28 06:23:07;;;;;;;8.83;6.77;;;1.20;1.00;;;;;;5134813;27;20096;-31
2023/01/28 06:25:32;;;;;;;7.33;6.33;;;1.40;1.00;;;;;;5134797;27;20049;-31
2023/01/28 06:27:58;;;;;;;8.45;6.18;;;1.20;1.00;;;;;;5116204;27;20058;-31
2023/01/28 06:30:24;;;;;;;8.70;6.07;;;1.20;1.00;;;;;;5134702;27;20078;-30
2023/01/28 06:32:54;;;;;;;6.93;6.18;;;1.20;1.00;;;;;;5134616;27;20400;-30
2023/01/28 06:35:20;;;;;;;8.25;6.78;;;1.20;1.00;;;;;;5116586;27;20104;-31
2023/01/28 06:37:46;;;;;;;7.97;6.40;;;1.10;1.00;;;;;;5116616;28;20047;-30
2023/01/28 06:40:12;;;;;;;8.13;6.40;;;1.20;1.00;;;;;;5116806;28;20070;-30
2023/01/28 06:42:38;;;;;;;10.20;6.57;;;1.10;1.00;;;;;;5134848;28;20481;-31
2023/01/28 06:45:04;;;;;;;8.53;6.87;;;1.10;1.00;;;;;;5135157;28;20050;-31
2023/01/28 06:47:29;;;;;;;8.38;6.70;;;1.10;1.00;;;;;;5116439;28;20131;-31
2023/01/28 06:49:55;;;;;;;9.03;6.60;;;1.10;1.00;;;;;;5116280;28;20075;-31
2023/01/28 06:52:21;;;;;;;8.57;6.50;;;1.10;1.00;;;;;;5116390;28;20426;-30
2023/01/28 06:54:46;;;;;;;7.32;6.05;;;1.10;1.00;;;;;;5134984;28;20031;-31
2023/01/28 06:57:12;;;;;;;8.70;6.70;;;1.10;1.00;;;;;;5134486;28;20092;-31
2023/01/28 06:59:38;;;;;;;9.80;6.38;;;1.00;1.00;;;;;;5134219;28;20043;-30
2023/01/28 07:02:03;;;;;;;9.53;6.43;;;1.00;1.00;;;;;;5134432;28;20050;-31
2023/01/28 07:04:30;;;;;;;11.00;6.70;;;1.00;1.00;;;;;;5134533;28;20059;-30
2023/01/28 07:06:56;;;;;;;8.77;6.32;;;0.90;1.00;;;;;;5134071;28;20393;-32
2023/01/28 07:09:22;;;;;;;8.17;6.17;;;0.90;1.00;;;;;;5134631;28;20051;-30
2023/01/28 07:11:47;;;;;;;9.70;6.40;;;0.80;99.90;;;;;;5134418;28;20536;-31
2023/01/28 07:14:13;;;;;;;8.30;6.57;;;0.60;99.90;;;;;;5134781;28;20050;-30
2023/01/28 07:16:39;;;;;;;7.55;6.47;;;0.60;1.00;;;;;;5116018;28;20096;-31
2023/01/28 07:19:04;;;;;;;9.90;7.10;;;0.50;1.00;;;;;;5116049;28;20079;-30
2023/01/28 07:21:30;;;;;;;12.63;6.77;;;0.30;1.00;;;;;;5116009;28;20113;-30
2023/01/28 07:23:56;;;;;;;7.70;6.63;;;0.20;1.00;;;;;;5134205;28;20122;-31
2023/01/28 07:26:22;;;;;;;9.20;6.70;;;0.20;1.00;;;;;;5134218;28;20055;-31
2023/01/28 07:28:48;;;;;;;8.33;7.10;;;0.00;1.00;;;;;;5134397;28;20085;-31
2023/01/28 07:31:14;;;;;;;17.57;7.37;;;-0.10;1.00;;;;;;5134520;28;20047;-30
2023/01/28 07:33:39;;;;;;;9.40;7.00;;;-0.20;5.00;;;;;;5134096;28;20039;-30
2023/01/28 07:36:05;;;;;;;9.70;6.83;;;-0.20;64.10;;;;;;5116538;28;20043;-30
2023/01/28 07:38:31;;;;;;;11.77;7.33;;;-0.20;99.90;;;;;;5134201;27;20043;-30
2023/01/28 07:40:57;;;;;;;10.23;7.40;;;-0.20;99.90;;;;;;5118579;27;20103;-31
2023/01/28 07:43:23;;;;;;;8.03;6.80;;;-0.20;99.90;;;;;;5137845;27;20047;-30
2023/01/28 07:45:48;;;;;;;9.93;6.93;;;-0.20;99.90;;;;;;5138359;27;20043;-30
2023/01/28 07:48:14;;;;;;;9.43;7.00;;;-0.30;99.90;;;;;;5137709;27;20141;-30
2023/01/28 07:50:40;;;;;;;10.20;7.83;;;-0.30;99.90;;;;;;5137686;27;20400;-30
2023/01/28 07:53:09;;;;;;;10.63;7.63;;;-0.30;99.90;;;;;;5137528;27;20480;-31
2023/01/28 07:55:36;;;;;;;9.17;7.07;;;-0.20;99.90;;;;;;5137865;27;20392;-31
2023/01/28 07:58:04;;;;;;;10.37;7.73;;;-0.20;99.90;;;;;;5138120;27;20117;-31
2023/01/28 08:00:31;;;;;;;9.57;7.40;;;-0.20;99.90;;;;;;5137450;27;20043;-30
2023/01/28 08:02:58;;;;;;;9.90;7.70;;;-0.20;99.90;;;;;;5137157;27;20517;-30
2023/01/28 08:05:38;;;;;;;9.97;7.63;;;-0.10;99.90;;;;;;5137445;27;20058;-30
2023/01/28 08:08:04;;;;;;;11.63;7.50;;;-0.10;99.90;;;;;;5137424;27;20091;-31
2023/01/28 08:10:29;;;;;;;10.50;7.47;;;-0.10;99.90;;;;;;5119136;27;20051;-30
2023/01/28 08:12:57;;;;;;;12.00;6.97;;;0.10;99.90;;;;;;5103081;27;20047;-31
2023/01/28 08:15:23;;;;;;;9.00;7.20;;;-0.20;99.90;;;;;;5138022;27;20370;-30
2023/01/28 08:17:49;;;;;;;11.20;8.40;;;-0.30;99.90;;;;;;5118953;27;20078;-30
2023/01/28 08:20:16;;;;;;;8.63;7.23;;;-0.20;99.90;;;;;;5137136;27;20054;-31
2023/01/28 08:22:41;;;;;;;10.20;7.90;;;-0.20;99.90;;;;;;5119244;27;20039;-30
2023/01/28 08:25:07;;;;;;;10.20;7.40;;;-0.20;99.90;;;;;;5137011;27;20108;-30
2023/01/28 08:27:33;;;;;;;9.60;7.55;;;-0.20;99.90;;;;;;5137296;27;20051;-30
2023/01/28 08:29:59;;;;;;;10.63;8.10;;;-0.20;99.90;;;;;;5118684;27;20047;-30
2023/01/28 08:32:24;;;;;;;11.50;8.77;;;-0.20;99.90;;;;;;5118713;27;20047;-32
2023/01/28 08:34:50;;;;;;;12.07;9.03;;;0.20;99.90;;;;;;5137522;27;20100;-31
2023/01/28 08:37:16;;;;;;;11.27;8.60;;;-0.10;99.90;;;;;;5136868;27;20412;-30
2023/01/28 08:39:42;;;;;;;13.00;9.13;;;0.00;99.90;;;;;;5118868;27;20047;-31
2023/01/28 08:42:07;;;;;;;11.57;8.33;;;0.00;99.90;;;;;;5136627;27;20396;-30
2023/01/28 08:44:33;;;;;;;14.07;8.77;;;0.20;1.00;;;;;;5136981;27;20043;-30
2023/01/28 08:46:59;;;;;;;15.50;10.03;;;0.20;1.00;;;;;;5117901;27;20047;-31
2023/01/28 08:49:25;;;;;;;11.90;8.43;;;0.30;1.00;;;;;;5136901;27;20047;-31
2023/01/28 08:51:51;;;;;;;10.90;8.07;;;0.50;1.00;;;;;;5136393;27;20530;-30
2023/01/28 08:54:16;;;;;;;10.70;8.60;;;0.60;1.00;;;;;;5136752;27;20100;-30
2023/01/28 08:56:43;;;;;;;11.53;7.73;;;0.70;99.90;;;;;;5136971;27;20054;-30
2023/01/28 08:59:10;;;;;;;11.87;8.17;;;0.70;99.90;;;;;;5136376;27;20051;-30
2023/01/28 09:01:36;;;;;;;10.75;8.00;;;0.80;99.90;;;;;;5136409;27;20039;-30
2023/01/28 09:04:02;;;;;;;10.00;7.88;;;0.90;99.90;;;;;;5136318;27;20051;-30
2023/01/28 09:06:28;;;;;;;10.35;7.57;;;1.00;1.00;;;;;;5136238;27;20054;-30
2023/01/28 09:08:56;;;;;;;10.38;8.48;;;1.00;1.00;;;;;;5136206;27;20050;-31
2023/01/28 09:11:22;;;;;;;9.53;7.67;;;1.10;1.00;;;;;;5136141;27;20561;-31
2023/01/28 09:13:48;;;;;;;11.50;7.93;;;1.20;1.00;;;;;;5117942;27;20078;-31
2023/01/28 09:16:13;;;;;;;13.17;8.33;;;1.20;1.00;;;;;;5135975;27;20050;-31
2023/01/28 09:18:40;;;;;;;10.10;8.00;;;1.30;99.90;;;;;;5117783;27;20134;-30
2023/01/28 09:21:06;;;;;;;9.50;7.33;;;1.40;99.90;;;;;;5135907;27;20042;-31
2023/01/28 09:23:36;;;;;;;10.37;8.00;;;1.50;99.90;;;;;;5135848;27;20130;-31
2023/01/28 09:26:03;;;;;;;8.10;6.95;;;1.60;99.90;;;;;;5135783;27;20100;-31
2023/01/28 09:28:30;;;;;;;9.73;7.40;;;1.80;99.90;;;;;;5135809;27;20116;-30
2023/01/28 09:31:06;;;;;;;7.97;7.10;;;1.90;17.90;;;;;;5135641;27;20100;-31
2023/01/28 09:33:33;;;;;;;8.32;7.28;;;2.10;1.00;;;;;;5118102;27;20472;-30
2023/01/28 09:36:00;;;;;;;10.05;6.80;;;2.20;1.00;;;;;;5135407;27;20043;-31
2023/01/28 09:38:25;;;;;;;9.32;7.78;;;2.40;1.00;;;;;;5135468;27;20101;-31
2023/01/28 09:40:51;;;;;;;8.05;6.70;;;2.60;99.90;;;;;;5135547;27;20504;-31
2023/01/28 09:43:36;;;;;;;9.52;7.45;;;2.50;99.90;;;;;;5135499;27;20125;-32
2023/01/28 09:46:05;;;;;;;11.10;6.78;;;2.60;20.30;;;;;;5100267;27;20066;-31
2023/01/28 09:48:41;;;;;;;9.27;6.78;;;2.70;99.90;;;;;;5135396;27;20039;-31
2023/01/28 09:51:14;;;;;;;8.93;7.68;;;2.90;21.50;;;;;;5135374;27;20047;-31
2023/01/28 09:53:47;;;;;;;8.90;6.53;;;2.90;99.90;;;;;;5135213;27;20456;-31
2023/01/28 09:56:24;;;;;;;7.97;6.97;;;3.00;14.90;;;;;;5116955;27;20082;-31
2023/01/28 09:58:50;;;;;;;9.45;7.20;;;3.00;99.90;;;;;;5116770;27;20043;-31
2023/01/28 10:01:34;;;;;;;8.68;6.78;;;3.10;99.90;;;;;;5135439;27;20051;-31
2023/01/28 10:04:13;;;;;;;9.40;6.32;;;3.10;99.90;;;;;;5134701;27;20094;-31
2023/01/28 10:06:53;;;;;;;7.20;6.50;;;3.00;99.90;;;;;;5135612;27;20369;-31
2023/01/28 10:09:25;;;;;;;8.95;7.07;;;3.00;99.90;;;;;;5135082;27;20039;-30
2023/01/28 10:12:07;;;;;;;8.95;7.25;;;3.00;1.00;;;;;;5135824;27;20079;-31
2023/01/28 10:15:00;;;;;;;7.03;5.78;;;3.10;1.00;;;;;;5135533;27;20088;-31
2023/01/28 10:17:31;;;;;;;8.60;6.22;;;3.10;99.90;;;;;;5116881;27;20051;-31
2023/01/28 10:19:59;;;;;;;8.95;6.63;;;3.20;1.00;;;;;;5135507;27;20047;-31
2023/01/28 10:22:30;;;;;;;11.23;6.70;;;3.20;11.80;;;;;;5116499;27;20112;-33
2023/01/28 10:25:05;;;;;;;7.40;6.05;;;3.30;99.90;;;;;;5117288;27;20062;-31
2023/01/28 10:27:32;;;;;;;8.55;5.85;;;3.20;99.90;;;;;;5117060;28;20066;-32
2023/01/28 10:29:59;;;;;;;8.20;5.65;;;3.20;99.90;;;;;;5134711;27;20130;-31
2023/01/28 10:32:34;;;;;;;8.00;5.60;;;3.30;99.90;;;;;;5134659;27;20047;-31
2023/01/28 10:35:01;;;;;;;7.00;5.47;;;3.40;99.90;;;;;;5134590;27;20484;-31
2023/01/28 10:37:33;;;;;;;8.68;6.85;;;3.80;99.90;;;;;;5134742;27;20055;-32
2023/01/28 10:40:01;;;;;;;14.55;6.20;;;3.60;99.90;;;;;;5117401;28;20055;-31
2023/01/28 10:42:30;;;;;;;9.15;5.95;;;3.70;99.90;;;;;;5135165;28;20138;-31
2023/01/28 10:45:14;;;;;;;7.45;5.72;;;3.70;99.90;;;;;;5134632;28;20038;-31
2023/01/28 10:48:06;;;;;;;7.30;5.97;;;3.70;1.00;;;;;;5117436;28;20081;-31
2023/01/28 10:50:34;;;;;;;9.18;5.75;;;3.70;1.00;;;;;;5135490;28;20175;-31
2023/01/28 10:53:02;;;;;;;6.53;5.65;;;3.80;65.50;;;;;;5134613;28;20054;-31
2023/01/28 10:55:49;;;;;;;8.23;5.97;;;3.90;85.90;;;;;;5135021;28;20047;-31
2023/01/28 10:58:45;;;;;;;10.90;5.93;;;3.80;1.00;;;;;;5093865;28;20051;-30
2023/01/28 11:01:11;;;;;;;7.32;4.93;;;3.80;1.00;;;;;;5116715;28;20125;-31
2023/01/28 11:03:38;;;;;;;8.23;5.35;;;3.90;99.90;;;;;;5134893;28;20151;-31
2023/01/28 11:06:04;;;;;;;8.15;5.95;;;3.90;99.90;;;;;;5134453;28;20055;-31
2023/01/28 11:08:30;;;;;;;9.05;6.95;;;4.00;14.30;;;;;;5116126;28;20518;-31
2023/01/28 11:10:56;;;;;;;11.20;7.70;;;4.00;99.90;;;;;;5134344;28;20050;-31
2023/01/28 11:13:26;;;;;;;8.50;6.40;;;4.00;99.90;;;;;;5116142;27;20047;-30
2023/01/28 11:16:00;;;;;;;8.52;6.47;;;4.00;99.90;;;;;;5138070;27;20054;-31
2023/01/28 11:18:37;;;;;;;8.85;6.85;;;4.00;1.00;;;;;;5138405;27;20090;-31
2023/01/28 11:21:06;;;;;;;9.18;6.78;;;3.90;91.50;;;;;;5121082;27;20046;-31
2023/01/28 11:23:59;;;;;;;9.05;6.22;;;3.90;99.90;;;;;;5138272;27;20086;-31
2023/01/28 11:26:29;;;;;;;9.43;7.00;;;3.90;38.90;;;;;;5120440;27;20058;-31
2023/01/28 11:28:55;;;;;;;8.95;7.15;;;3.90;31.50;;;;;;5120612;27;20295;-31
2023/01/28 11:31:25;;;;;;;11.32;7.28;;;3.90;1.00;;;;;;5119752;27;20130;-31
2023/01/28 11:33:58;;;;;;;8.98;7.28;;;3.90;98.40;;;;;;5120305;27;20074;-31
2023/01/28 11:36:26;;;;;;;16.45;7.15;;;3.80;1.00;;;;;;5138003;27;20102;-31
2023/01/28 11:38:53;;;;;;;10.68;7.82;;;3.80;99.90;;;;;;5120100;27;20054;-31
2023/01/28 11:41:28;;;;;;;8.07;6.18;;;3.90;99.90;;;;;;5137869;27;20047;-31
2023/01/28 11:43:54;;;;;;;9.13;6.53;;;3.90;99.90;;;;;;5138465;27;20142;-31
2023/01/28 11:46:23;;;;;;;13.45;7.80;;;3.90;99.90;;;;;;5102809;27;20043;-31
2023/01/28 11:48:55;;;;;;;10.30;7.13;;;3.90;99.90;;;;;;5137787;27;20039;-31
2023/01/28 11:51:37;;;;;;;12.25;6.72;;;3.90;99.90;;;;;;5138030;27;20176;-31
2023/01/28 11:54:30;;;;;;;9.45;7.07;;;3.90;99.90;;;;;;5138287;27;20450;-31
2023/01/28 11:57:14;;;;;;;10.73;7.07;;;4.00;99.90;;;;;;5138469;27;20050;-31
2023/01/28 11:59:58;;;;;;;10.10;7.82;;;4.00;99.90;;;;;;5137654;27;20047;-32
2023/01/28 12:02:48;;;;;;;9.63;7.45;;;4.00;99.90;;;;;;5137627;27;20091;-31
2023/01/28 12:05:42;;;;;;;10.02;7.53;;;3.90;99.90;;;;;;5119178;27;20134;-31
2023/01/28 12:08:33;;;;;;;8.95;6.72;;;3.90;99.90;;;;;;5137374;27;20057;-31
2023/01/28 12:12:09;;;;;;;10.88;7.82;;;3.80;99.90;;;;;;5119966;27;20054;-31
2023/01/28 12:14:32;;;;;;;8.88;6.25;;;3.60;99.90;;;;;;5137038;27;20053;-31
2023/01/28 12:17:13;;;;;;;10.73;8.30;;;3.70;99.90;;;;;;5138052;27;20074;-31
2023/01/28 12:19:59;;;;;;;10.82;8.82;;;3.80;1.00;;;;;;5137189;27;20047;-31
2023/01/28 12:22:52;;;;;;;9.70;7.25;;;4.10;1.00;;;;;;5119512;27;20129;-31
2023/01/28 12:25:38;;;;;;;9.45;7.25;;;4.10;99.90;;;;;;5136695;27;20114;-32
2023/01/28 12:28:15;;;;;;;8.18;6.68;;;4.20;99.90;;;;;;5137949;27;20043;-31
2023/01/28 12:31:10;;;;;;;8.55;6.45;;;4.20;99.90;;;;;;5118965;27;20047;-31
2023/01/28 12:34:03;;;;;;;9.30;6.53;;;4.30;99.90;;;;;;5136675;27;20454;-32
2023/01/28 12:36:50;;;;;;;9.60;5.97;;;4.40;99.90;;;;;;5137193;27;20130;-31
2023/01/28 12:39:43;;;;;;;8.85;5.97;;;4.50;99.90;;;;;;5136831;27;20050;-31
2023/01/28 12:42:33;;;;;;;7.03;5.43;;;4.60;99.90;;;;;;5136734;27;20050;-31
2023/01/28 12:45:12;;;;;;;9.77;5.68;;;4.80;99.90;;;;;;5136741;27;20133;-31
2023/01/28 12:47:39;;;;;;;7.03;5.53;;;4.90;1.00;;;;;;5136779;27;20047;-31
2023/01/28 12:50:23;;;;;;;7.07;5.85;;;5.00;99.90;;;;;;5136580;27;20076;-31
2023/01/28 12:52:58;;;;;;;7.93;5.20;;;5.10;99.90;;;;;;5137213;27;20049;-31
2023/01/28 12:55:45;;;;;;;9.93;5.10;;;5.10;96.60;;;;;;5118402;27;20159;-31
2023/01/28 12:58:19;;;;;;;8.68;5.53;;;5.30;1.00;;;;;;5136481;27;20083;-32
2023/01/28 13:00:49;;;;;;;8.80;5.25;;;5.40;99.90;;;;;;5102199;27;20057;-31
2023/01/28 13:03:19;;;;;;;10.50;4.80;;;5.50;22.30;;;;;;5118195;27;20051;-32
2023/01/28 13:06:20;;;;;;;7.15;4.78;;;5.60;1.00;;;;;;5136322;27;20100;-32
2023/01/28 13:08:47;;;;;;;8.13;5.32;;;5.50;99.90;;;;;;5094331;27;20062;-31
2023/01/28 13:11:16;;;;;;;6.57;5.38;;;5.60;1.00;;;;;;5136173;27;20064;-31
2023/01/28 13:13:44;;;;;;;8.60;5.28;;;5.70;1.00;;;;;;5135804;27;20446;-31
2023/01/28 13:16:11;;;;;;;9.75;5.57;;;6.00;99.90;;;;;;5118809;27;20045;-32
2023/01/28 13:18:39;;;;;;;7.00;4.78;;;5.90;99.90;;;;;;5136051;27;20047;-31
2023/01/28 13:21:11;;;;;;;8.10;5.25;;;5.60;99.90;;;;;;5136050;27;20065;-31
2023/01/28 13:23:48;;;;;;;8.35;5.03;;;5.40;1.00;;;;;;5136536;27;20039;-32
2023/01/28 13:26:19;;;;;;;8.93;6.18;;;5.30;1.00;;;;;;5136508;27;20094;-31
2023/01/28 13:28:47;;;;;;;8.20;5.97;;;5.10;1.00;;;;;;5118553;27;20365;-32
2023/01/28 13:31:18;;;;;;;10.38;6.88;;;4.90;99.90;;;;;;5117449;27;20519;-31
2023/01/28 13:33:52;;;;;;;9.18;6.25;;;4.90;99.90;;;;;;5117602;27;20437;-31
2023/01/28 13:36:35;;;;;;;10.85;7.10;;;4.80;99.90;;;;;;5135680;27;20039;-31
2023/01/28 13:39:14;;;;;;;8.85;6.60;;;4.70;99.90;;;;;;5117442;27;20126;-31
2023/01/28 13:41:41;;;;;;;10.75;6.93;;;4.80;99.90;;;;;;5135888;27;20572;-31
2023/01/28 13:44:25;;;;;;;12.73;6.47;;;4.80;1.00;;;;;;5135560;27;20043;-31
2023/01/28 13:47:19;;;;;;;10.60;7.22;;;4.80;1.00;;;;;;5136036;27;20422;-32
2023/01/28 13:50:10;;;;;;;8.93;6.65;;;4.80;1.00;;;;;;5127701;27;20090;-31